createdAt,value
2019-04-07T00:01:40.038Z,30.73
2019-04-07T00:06:41.804Z,30.23
2019-04-07T00:11:44.104Z,26.87
2019-04-07T00:16:45.877Z,35.10
2019-04-07T00:21:47.945Z,30.90
2019-04-07T00:26:49.733Z,28.80
2019-04-07T00:31:51.567Z,26.77
2019-04-07T00:36:53.645Z,28.97
2019-04-07T00:41:56.527Z,32.60
2019-04-07T00:46:58.640Z,29.27
2019-04-07T00:52:01.485Z,30.50
2019-04-07T00:57:03.225Z,30.33
2019-04-07T01:02:05.790Z,26.80
2019-04-07T01:07:08.122Z,34.43
2019-04-07T01:12:10.318Z,27.73
2019-04-07T01:17:12.606Z,28.83
2019-04-07T01:22:14.541Z,27.57
2019-04-07T01:27:16.278Z,28.83
2019-04-07T01:32:18.101Z,24.00
2019-04-07T01:37:19.825Z,27.87
2019-04-07T01:42:30.174Z,29.80
2019-04-07T01:47:50.808Z,30.00
2019-04-07T01:53:01.109Z,32.10
2019-04-07T01:58:20.239Z,36.37
2019-04-07T02:03:44.105Z,29.50
2019-04-07T02:08:55.766Z,24.33
2019-04-07T02:14:17.095Z,25.80
2019-04-07T02:19:26.248Z,25.80
2019-04-07T02:24:46.326Z,27.17
2019-04-07T02:30:06.206Z,26.47
2019-04-07T02:35:46.573Z,26.30
2019-04-07T02:41:06.514Z,27.07
2019-04-07T02:46:44.010Z,27.83
2019-04-07T02:52:09.096Z,31.17
2019-04-07T02:57:26.848Z,28.33
2019-04-07T03:02:39.211Z,28.63
2019-04-07T03:07:50.456Z,28.53
2019-04-07T03:13:10.363Z,26.57
2019-04-07T03:18:27.717Z,26.53
2019-04-07T03:23:38.295Z,26.43
2019-04-07T03:29:11.897Z,27.53
2019-04-07T03:34:29.027Z,33.77
2019-04-07T03:39:49.323Z,26.33
2019-04-07T03:45:04.144Z,29.13
2019-04-07T03:50:17.095Z,32.90
2019-04-07T03:55:41.306Z,26.57
2019-04-07T04:01:34.270Z,32.70
2019-04-07T04:06:56.678Z,30.67
2019-04-07T04:12:05.024Z,32.00
2019-04-07T04:17:07.021Z,32.07
2019-04-07T04:22:09.163Z,26.37
2019-04-07T04:27:11.079Z,34.03
2019-04-07T04:32:13.435Z,34.53
2019-04-07T04:37:15.439Z,28.80
2019-04-07T04:42:17.175Z,28.57
2019-04-07T04:47:19.179Z,32.70
2019-04-07T04:52:21.953Z,26.53
2019-04-07T04:57:23.730Z,32.80
2019-04-07T05:02:25.769Z,31.97
2019-04-07T05:07:27.610Z,27.30
2019-04-07T05:12:29.402Z,28.90
2019-04-07T05:17:31.170Z,30.97
2019-04-07T05:22:33.282Z,32.80
2019-04-07T05:27:34.981Z,33.87
2019-04-07T05:32:36.913Z,28.27
2019-04-07T05:37:39.354Z,27.00
2019-04-07T05:42:41.302Z,28.33
2019-04-07T05:47:47.793Z,32.70
2019-04-07T05:52:46.635Z,32.23
2019-04-07T05:57:48.515Z,35.13
2019-04-07T06:02:50.790Z,32.47
2019-04-07T06:07:52.750Z,34.27
2019-04-07T06:12:55.323Z,33.53
2019-04-07T06:18:00.600Z,33.07
2019-04-07T06:23:02.044Z,34.30
2019-04-07T06:28:04.247Z,35.67
2019-04-07T06:33:07.279Z,35.83
2019-04-07T06:38:09.243Z,31.07
2019-04-07T06:43:11.113Z,29.97
2019-04-07T06:48:13.349Z,30.57
2019-04-07T06:53:33.813Z,35.07
2019-04-07T06:58:42.888Z,34.03
2019-04-07T07:04:16.769Z,37.70
2019-04-07T07:09:41.696Z,33.57
2019-04-07T07:15:03.244Z,35.37
2019-04-07T07:20:17.647Z,28.77
2019-04-07T07:25:19.497Z,30.97
2019-04-07T07:30:21.439Z,30.13
2019-04-07T07:35:23.476Z,29.13
2019-04-07T07:40:25.425Z,36.10
2019-04-07T07:45:27.406Z,35.17
2019-04-07T07:50:29.921Z,28.33
2019-04-07T07:55:36.521Z,37.83
2019-04-07T08:00:40.009Z,30.90
2019-04-07T08:05:39.092Z,22.57
2019-04-07T08:10:40.822Z,25.37
2019-04-07T08:15:42.662Z,22.73
2019-04-07T08:20:45.167Z,26.17
2019-04-07T08:25:47.583Z,27.57
2019-04-07T08:30:50.185Z,27.37
2019-04-07T08:35:54.218Z,28.67
2019-04-07T08:40:55.637Z,21.27
2019-04-07T08:45:57.957Z,26.63
2019-04-07T08:51:00.831Z,30.03
2019-04-07T08:56:03.480Z,22.07
2019-04-07T09:01:05.424Z,16.57
2019-04-07T09:06:07.315Z,21.97
2019-04-07T09:11:14.656Z,19.57
2019-04-07T09:16:23.667Z,26.17
2019-04-07T09:21:47.536Z,25.67
2019-04-07T09:27:07.923Z,29.23
2019-04-07T09:32:27.817Z,25.63
2019-04-07T09:37:44.521Z,22.93
2019-04-07T09:43:01.278Z,20.10
2019-04-07T09:48:25.282Z,19.83
2019-04-07T09:53:50.706Z,18.80
2019-04-07T09:59:05.412Z,20.00
2019-04-07T10:04:16.190Z,25.47
2019-04-07T10:09:38.515Z,20.67
2019-04-07T10:14:54.255Z,20.47
2019-04-07T10:20:15.552Z,24.07
2019-04-07T10:25:40.315Z,15.97
2019-04-07T10:31:00.450Z,18.63
2019-04-07T10:36:30.817Z,12.63
2019-04-07T10:42:05.302Z,12.57
2019-04-07T10:47:23.491Z,13.37
2019-04-07T10:52:41.230Z,12.90
2019-04-07T10:57:49.462Z,14.73
2019-04-07T11:02:58.121Z,14.10
2019-04-07T11:08:18.274Z,12.43
2019-04-07T11:13:45.834Z,17.20
2019-04-07T11:19:10.037Z,19.17
2019-04-07T11:24:35.112Z,18.07
2019-04-07T11:29:46.709Z,15.73
2019-04-07T11:35:17.094Z,15.37
2019-04-07T11:40:27.977Z,14.47
2019-04-07T11:45:58.313Z,12.97
2019-04-07T11:51:11.265Z,18.30
2019-04-07T11:56:35.264Z,13.70
2019-04-07T12:01:53.464Z,14.27
2019-04-07T12:07:21.983Z,14.20
2019-04-07T12:12:56.004Z,14.97
2019-04-07T12:18:16.795Z,14.03
2019-04-07T12:23:34.003Z,12.53
2019-04-07T12:29:04.258Z,9.67
2019-04-07T12:34:25.525Z,15.03
2019-04-07T12:39:35.368Z,12.97
2019-04-07T12:45:10.049Z,14.83
2019-04-07T12:50:51.110Z,13.10
2019-04-07T12:56:33.356Z,10.50
2019-04-07T13:01:44.550Z,13.20
2019-04-07T13:07:15.131Z,15.67
2019-04-07T13:12:44.178Z,12.77
2019-04-07T13:18:12.126Z,12.30
2019-04-07T13:23:27.490Z,22.37
2019-04-07T13:28:51.941Z,11.80
2019-04-07T13:34:10.830Z,14.17
2019-04-07T13:39:45.933Z,10.83
2019-04-07T13:45:04.316Z,12.87
2019-04-07T13:50:22.494Z,14.00
2019-04-07T13:55:43.918Z,17.17
2019-04-07T14:01:11.521Z,13.63
2019-04-07T14:06:31.126Z,14.77
2019-04-07T14:12:01.931Z,15.30
2019-04-07T14:17:19.668Z,17.17
2019-04-07T14:22:43.402Z,12.10
2019-04-07T14:28:07.823Z,9.47
2019-04-07T14:33:19.795Z,15.77
2019-04-07T14:38:31.290Z,17.93
2019-04-07T14:43:47.513Z,18.17
2019-04-07T14:49:15.899Z,14.60
2019-04-07T14:54:46.708Z,17.73
2019-04-07T15:00:02.146Z,14.93
2019-04-07T15:05:13.719Z,14.90
2019-04-07T15:10:21.763Z,17.73
2019-04-07T15:15:23.714Z,15.53
2019-04-07T15:20:25.450Z,13.60
2019-04-07T15:25:27.718Z,14.93
2019-04-07T15:30:31.123Z,13.43
2019-04-07T15:35:33.107Z,14.30
2019-04-07T15:40:36.210Z,15.57
2019-04-07T15:45:39.773Z,13.33
2019-04-07T15:50:41.933Z,13.33
2019-04-07T15:55:52.963Z,12.67
2019-04-07T16:00:48.579Z,14.23
2019-04-07T16:05:51.244Z,17.93
2019-04-07T16:10:53.672Z,13.73
2019-04-07T16:15:57.257Z,12.97
2019-04-07T16:21:00.694Z,11.17
2019-04-07T16:26:03.310Z,12.10
2019-04-07T16:31:06.522Z,15.33
2019-04-07T16:36:08.730Z,16.07
2019-04-07T16:41:12.301Z,10.97
2019-04-07T16:46:20.130Z,16.33
2019-04-07T16:51:17.908Z,14.33
2019-04-07T16:56:21.877Z,18.90
2019-04-07T17:01:24.595Z,15.50
2019-04-07T17:06:29.808Z,14.57
2019-04-07T17:11:31.139Z,17.17
2019-04-07T17:16:33.437Z,15.63
2019-04-07T17:21:39.349Z,16.70
2019-04-07T17:26:39.338Z,13.67
2019-04-07T17:31:41.434Z,15.23
2019-04-07T17:36:43.185Z,17.77
2019-04-07T17:41:48.337Z,14.93
2019-04-07T17:47:11.615Z,18.03
2019-04-07T17:52:24.611Z,16.23
2019-04-07T17:57:38.282Z,18.47
2019-04-07T18:03:11.743Z,18.07
2019-04-07T18:08:37.369Z,20.20
2019-04-07T18:14:13.626Z,21.70
2019-04-07T18:19:43.684Z,15.17
2019-04-07T18:25:10.955Z,17.10
2019-04-07T18:30:36.057Z,21.03
2019-04-07T18:36:05.096Z,20.90
2019-04-07T18:41:34.765Z,23.50
2019-04-07T18:46:51.564Z,19.17
2019-04-07T18:52:22.652Z,18.77
2019-04-07T18:57:40.029Z,26.40
2019-04-07T19:02:50.512Z,20.70
2019-04-07T19:08:21.618Z,20.20
2019-04-07T19:13:35.819Z,20.33
2019-04-07T19:18:45.297Z,23.73
2019-04-07T19:24:12.955Z,21.77
2019-04-07T19:29:33.710Z,21.77
2019-04-07T19:34:57.313Z,20.43
2019-04-07T19:40:16.703Z,22.50
2019-04-07T19:45:41.342Z,19.03
2019-04-07T19:51:03.189Z,21.23
2019-04-07T19:56:23.183Z,26.90
2019-04-07T20:01:47.966Z,32.30
2019-04-07T20:07:02.492Z,25.90
2019-04-07T20:12:16.328Z,22.97
2019-04-07T20:17:43.173Z,21.27
2019-04-07T20:23:16.763Z,24.97
2019-04-07T20:28:45.102Z,34.60
2019-04-07T20:34:06.330Z,42.40
2019-04-07T20:39:35.330Z,33.43
2019-04-07T20:45:04.275Z,30.77
2019-04-07T20:50:29.718Z,35.80
2019-04-07T20:55:50.671Z,32.67
2019-04-07T21:01:27.646Z,33.40
2019-04-07T21:06:44.153Z,29.03
2019-04-07T21:12:00.866Z,32.80
2019-04-07T21:17:21.853Z,35.07
2019-04-07T21:22:43.252Z,38.03
2019-04-07T21:27:50.581Z,29.23
2019-04-07T21:33:02.446Z,30.40
2019-04-07T21:38:29.894Z,30.37
2019-04-07T21:43:42.440Z,37.93
2019-04-07T21:49:02.967Z,36.47
2019-04-07T21:54:12.856Z,34.27
2019-04-07T21:59:40.065Z,31.57
2019-04-07T22:05:09.314Z,39.43
2019-04-07T22:10:11.663Z,34.77
2019-04-07T22:15:14.150Z,38.87
2019-04-07T22:20:18.798Z,32.30
2019-04-07T22:25:30.510Z,35.47
2019-04-07T22:30:33.972Z,35.03
2019-04-07T22:35:38.420Z,38.50
2019-04-07T22:40:39.570Z,42.13
2019-04-07T22:45:52.745Z,36.73
2019-04-07T22:50:45.392Z,44.43
2019-04-07T22:55:47.256Z,33.70
2019-04-07T23:00:49.019Z,35.53
2019-04-07T23:05:51.326Z,40.67
2019-04-07T23:10:53.208Z,36.10
2019-04-07T23:16:08.159Z,39.87
2019-04-07T23:20:58.587Z,41.80
2019-04-07T23:26:00.317Z,40.47
2019-04-07T23:31:02.146Z,37.83
2019-04-07T23:36:03.909Z,37.53
2019-04-07T23:41:05.689Z,35.17
2019-04-07T23:46:18.758Z,36.07
2019-04-07T23:51:10.985Z,33.07
2019-04-07T23:56:12.775Z,35.10
